createdAt,value
2018-10-12T00:00:58.860Z,62.60
2018-10-12T00:03:27.054Z,61.60
2018-10-12T00:05:55.339Z,62.80
2018-10-12T00:08:23.427Z,62.30
2018-10-12T00:10:52.171Z,62.60
2018-10-12T00:13:20.273Z,62.20
2018-10-12T00:15:48.393Z,62.70
2018-10-12T00:18:16.560Z,62.60
2018-10-12T00:20:44.782Z,62.60
2018-10-12T00:23:12.889Z,62.60
2018-10-12T00:25:41.141Z,62.50
2018-10-12T00:28:09.472Z,62.50
2018-10-12T00:30:37.617Z,62.40
2018-10-12T00:33:05.940Z,62.20
2018-10-12T00:35:34.035Z,62.60
2018-10-12T00:38:02.996Z,62.70
2018-10-12T00:40:30.989Z,62.10
2018-10-12T00:42:59.169Z,62.80
2018-10-12T00:45:27.338Z,62.80
2018-10-12T00:47:58.369Z,62.80
2018-10-12T00:50:27.038Z,62.80
2018-10-12T00:52:55.217Z,62.70
2018-10-12T00:55:25.232Z,63.40
2018-10-12T00:57:53.376Z,62.70
2018-10-12T01:00:21.995Z,63.10
2018-10-12T01:02:50.149Z,63.50
2018-10-12T01:05:18.424Z,63.70
2018-10-12T01:07:46.489Z,62.70
2018-10-12T01:10:14.642Z,62.70
2018-10-12T01:12:44.342Z,62.70
2018-10-12T01:15:12.548Z,63.10
2018-10-12T01:17:40.737Z,63.40
2018-10-12T01:20:09.368Z,62.10
2018-10-12T01:22:38.678Z,63.30
2018-10-12T01:25:07.668Z,62.80
2018-10-12T01:27:35.823Z,62.60
2018-10-12T01:30:04.972Z,63.40
2018-10-12T01:32:38.541Z,63.50
2018-10-12T01:35:06.748Z,63.90
2018-10-12T01:37:34.907Z,64.10
2018-10-12T01:40:03.057Z,64.50
2018-10-12T01:42:31.116Z,64.60
2018-10-12T01:44:59.357Z,63.50
2018-10-12T01:47:27.948Z,64.70
2018-10-12T01:49:56.075Z,64.30
2018-10-12T01:52:24.372Z,64.40
2018-10-12T01:54:52.620Z,64.80
2018-10-12T01:57:20.684Z,64.70
2018-10-12T01:59:48.869Z,64.20
2018-10-12T02:02:17.184Z,64.80
2018-10-12T02:04:45.757Z,64.90
2018-10-12T02:07:13.896Z,64.70
2018-10-12T02:09:42.098Z,64.60
2018-10-12T02:12:10.483Z,65.00
2018-10-12T02:14:38.721Z,64.30
2018-10-12T02:17:07.075Z,64.40
2018-10-12T02:19:35.285Z,65.50
2018-10-12T02:22:03.753Z,66.50
2018-10-12T02:24:31.855Z,67.10
2018-10-12T02:26:59.939Z,67.90
2018-10-12T02:29:28.409Z,68.10
2018-10-12T02:31:56.466Z,70.00
2018-10-12T02:34:24.755Z,70.50
2018-10-12T02:36:53.011Z,70.80
2018-10-12T02:39:21.145Z,70.30
2018-10-12T02:41:49.455Z,72.00
2018-10-12T02:44:17.599Z,71.90
2018-10-12T02:46:45.804Z,71.90
2018-10-12T02:49:13.918Z,71.40
2018-10-12T02:51:42.133Z,71.80
2018-10-12T02:54:10.224Z,71.30
2018-10-12T02:56:38.507Z,71.80
2018-10-12T02:59:06.859Z,71.80
2018-10-12T03:01:34.987Z,71.80
2018-10-12T03:04:03.148Z,71.80
2018-10-12T03:06:31.237Z,71.70
2018-10-12T03:08:59.362Z,71.70
2018-10-12T03:11:27.499Z,71.70
2018-10-12T03:13:55.644Z,71.10
2018-10-12T03:16:24.585Z,71.50
2018-10-12T03:18:52.822Z,70.70
2018-10-12T03:21:20.941Z,70.90
2018-10-12T03:23:50.022Z,71.00
2018-10-12T03:26:18.351Z,70.30
2018-10-12T03:28:46.507Z,71.40
2018-10-12T03:31:14.715Z,71.30
2018-10-12T03:33:42.958Z,72.80
2018-10-12T03:36:11.167Z,71.20
2018-10-12T03:38:39.305Z,71.20
2018-10-12T03:41:07.718Z,71.20
2018-10-12T03:43:37.013Z,71.80
2018-10-12T03:46:05.185Z,72.40
2018-10-12T03:48:33.361Z,72.00
2018-10-12T03:51:01.447Z,72.70
2018-10-12T03:53:29.770Z,72.30
2018-10-12T03:55:57.981Z,72.30
2018-10-12T03:58:26.351Z,72.70
2018-10-12T04:00:54.564Z,71.10
2018-10-12T04:03:22.879Z,71.20
2018-10-12T04:05:51.041Z,72.00
2018-10-12T04:08:19.104Z,71.00
2018-10-12T04:10:47.376Z,71.50
2018-10-12T04:13:15.655Z,72.00
2018-10-12T04:15:43.834Z,71.60
2018-10-12T04:18:11.898Z,71.70
2018-10-12T04:20:39.961Z,72.40
2018-10-12T04:23:08.066Z,72.70
2018-10-12T04:25:36.265Z,72.50
2018-10-12T04:28:04.445Z,73.30
2018-10-12T04:30:32.565Z,74.30
2018-10-12T04:33:01.118Z,74.40
2018-10-12T04:35:29.279Z,74.70
2018-10-12T04:37:57.655Z,76.00
2018-10-12T04:41:12.176Z,76.40
2018-10-12T04:43:40.385Z,76.00
2018-10-12T04:46:11.326Z,76.90
2018-10-12T04:48:40.418Z,78.40
2018-10-12T04:51:13.105Z,79.20
2018-10-12T04:53:41.268Z,77.80
2018-10-12T04:56:10.088Z,78.70
2018-10-12T04:58:38.991Z,78.30
2018-10-12T05:01:07.227Z,78.40
2018-10-12T05:03:35.270Z,78.40
2018-10-12T05:06:04.369Z,77.20
2018-10-12T05:08:33.053Z,76.80
2018-10-12T05:11:01.287Z,75.90
2018-10-12T05:13:31.450Z,76.80
2018-10-12T05:15:59.817Z,76.90
2018-10-12T05:18:28.092Z,76.80
2018-10-12T05:20:56.345Z,76.90
2018-10-12T05:23:24.553Z,76.70
2018-10-12T05:25:53.054Z,76.60
2018-10-12T05:28:21.250Z,76.70
2018-10-12T05:30:49.313Z,76.70
2018-10-12T05:33:17.853Z,76.70
2018-10-12T05:35:46.169Z,77.10
2018-10-12T05:38:14.550Z,76.70
2018-10-12T05:40:42.685Z,76.60
2018-10-12T05:43:12.973Z,77.00
2018-10-12T05:45:41.040Z,76.70
2018-10-12T05:48:26.246Z,76.60
2018-10-12T05:50:54.598Z,76.50
2018-10-12T05:53:23.170Z,76.60
2018-10-12T05:55:51.565Z,75.70
2018-10-12T05:58:20.165Z,75.80
2018-10-12T06:00:49.889Z,75.20
2018-10-12T06:03:18.170Z,75.70
2018-10-12T06:05:46.281Z,75.20
2018-10-12T06:08:14.461Z,74.90
2018-10-12T06:10:42.525Z,74.90
2018-10-12T06:13:10.791Z,75.00
2018-10-12T06:15:39.038Z,74.70
2018-10-12T06:18:09.145Z,74.80
2018-10-12T06:20:37.402Z,73.90
2018-10-12T06:23:05.630Z,74.00
2018-10-12T06:25:33.851Z,74.00
2018-10-12T06:28:07.084Z,72.50
2018-10-12T06:30:35.307Z,72.80
2018-10-12T06:33:03.591Z,73.30
2018-10-12T06:35:31.714Z,73.10
2018-10-12T06:37:59.936Z,71.90
2018-10-12T06:40:28.423Z,71.70
2018-10-12T06:42:56.740Z,71.90
2018-10-12T06:45:24.845Z,71.60
2018-10-12T06:47:52.983Z,71.20
2018-10-12T06:50:20.999Z,71.10
2018-10-12T06:52:49.152Z,71.20
2018-10-12T06:55:17.264Z,71.30
2018-10-12T06:57:45.547Z,71.40
2018-10-12T07:00:13.655Z,70.40
2018-10-12T07:02:41.778Z,70.20
2018-10-12T07:05:10.688Z,69.30
2018-10-12T07:07:38.909Z,68.50
2018-10-12T07:10:07.102Z,67.00
2018-10-12T07:12:35.193Z,60.50
2018-10-12T07:15:03.491Z,53.10
2018-10-12T07:17:31.553Z,46.90
2018-10-12T07:19:59.788Z,42.50
2018-10-12T07:22:28.063Z,40.00
2018-10-12T07:24:56.312Z,37.70
2018-10-12T07:27:24.651Z,35.80
2018-10-12T07:29:52.937Z,33.20
2018-10-12T07:32:21.084Z,32.60
2018-10-12T07:34:49.329Z,31.10
2018-10-12T07:37:17.645Z,28.40
2018-10-12T07:39:45.944Z,28.80
2018-10-12T07:42:14.086Z,29.30
2018-10-12T07:44:42.347Z,27.70
2018-10-12T07:47:10.461Z,26.30
2018-10-12T07:49:38.563Z,26.80
2018-10-12T07:52:06.919Z,25.80
2018-10-12T07:54:35.119Z,25.30
2018-10-12T07:57:09.055Z,25.30
2018-10-12T07:59:37.237Z,24.30
2018-10-12T08:02:05.834Z,22.80
2018-10-12T08:04:33.903Z,22.50
2018-10-12T08:07:01.960Z,21.60
2018-10-12T08:09:30.245Z,21.70
2018-10-12T08:11:58.361Z,21.00
2018-10-12T08:14:26.498Z,20.00
2018-10-12T08:16:54.688Z,19.40
2018-10-12T08:19:22.904Z,20.10
2018-10-12T08:21:51.143Z,19.70
2018-10-12T08:24:19.262Z,19.60
2018-10-12T08:26:47.534Z,19.40
2018-10-12T08:29:16.083Z,19.80
2018-10-12T08:31:44.316Z,21.50
2018-10-12T08:34:13.359Z,23.00
2018-10-12T08:36:41.501Z,25.50
2018-10-12T08:39:11.703Z,28.20
2018-10-12T08:41:39.915Z,29.90
2018-10-12T08:44:08.789Z,32.40
2018-10-12T08:46:37.059Z,36.30
2018-10-12T08:49:05.278Z,35.90
2018-10-12T08:51:34.033Z,36.90
2018-10-12T08:54:02.255Z,38.70
2018-10-12T08:56:30.394Z,40.20
2018-10-12T08:58:58.607Z,41.30
2018-10-12T09:01:26.725Z,41.10
2018-10-12T09:03:54.898Z,41.60
2018-10-12T09:06:22.970Z,42.30
2018-10-12T09:08:51.045Z,42.40
2018-10-12T09:11:19.145Z,42.90
2018-10-12T09:13:47.444Z,43.30
2018-10-12T09:16:16.006Z,42.20
2018-10-12T09:18:44.099Z,42.70
2018-10-12T09:21:12.439Z,43.00
2018-10-12T09:23:40.537Z,43.20
2018-10-12T09:26:08.829Z,43.70
2018-10-12T09:28:37.236Z,43.00
2018-10-12T09:31:05.802Z,43.50
2018-10-12T09:33:34.026Z,43.40
2018-10-12T09:36:02.321Z,43.30
2018-10-12T09:38:30.577Z,43.10
2018-10-12T09:40:58.754Z,43.40
2018-10-12T09:43:27.037Z,43.50
2018-10-12T09:45:55.293Z,43.40
2018-10-12T09:48:23.392Z,43.10
2018-10-12T09:50:51.696Z,42.40
2018-10-12T09:53:20.008Z,43.20
2018-10-12T09:55:48.277Z,43.10
2018-10-12T09:58:16.740Z,43.00
2018-10-12T10:00:50.653Z,43.40
2018-10-12T10:03:24.382Z,43.10
2018-10-12T10:05:52.504Z,42.90
2018-10-12T10:08:20.877Z,42.90
2018-10-12T10:10:49.091Z,42.70
2018-10-12T10:13:17.184Z,42.40
2018-10-12T10:15:45.405Z,42.60
2018-10-12T10:18:13.488Z,42.30
2018-10-12T10:20:41.607Z,42.70
2018-10-12T10:23:09.747Z,42.40
2018-10-12T10:25:38.421Z,43.40
2018-10-12T10:28:06.638Z,43.20
2018-10-12T10:30:34.671Z,43.00
2018-10-12T10:33:02.782Z,42.80
2018-10-12T10:35:30.834Z,42.80
2018-10-12T10:37:58.880Z,41.90
2018-10-12T10:40:27.080Z,39.20
2018-10-12T10:42:55.287Z,35.20
2018-10-12T10:45:23.824Z,30.10
2018-10-12T10:47:52.140Z,29.20
2018-10-12T10:50:21.003Z,26.50
2018-10-12T10:52:49.078Z,24.80
2018-10-12T10:55:17.355Z,24.20
2018-10-12T10:57:45.551Z,22.20
2018-10-12T11:00:13.716Z,20.40
2018-10-12T11:02:41.887Z,19.60
2018-10-12T11:05:10.083Z,19.60
2018-10-12T11:07:38.297Z,18.50
2018-10-12T11:10:06.489Z,17.40
2018-10-12T11:12:34.856Z,15.80
2018-10-12T11:15:03.097Z,15.80
2018-10-12T11:17:31.297Z,16.10
2018-10-12T11:19:59.421Z,15.70
2018-10-12T11:22:27.653Z,15.60
2018-10-12T11:24:55.896Z,15.90
2018-10-12T11:27:24.138Z,16.00
2018-10-12T11:29:52.502Z,16.10
2018-10-12T11:32:20.727Z,16.40
2018-10-12T11:34:48.899Z,14.30
2018-10-12T11:37:17.287Z,14.10
2018-10-12T11:39:45.434Z,14.30
2018-10-12T11:42:13.554Z,13.60
2018-10-12T11:44:41.820Z,12.50
2018-10-12T11:47:10.018Z,12.60
2018-10-12T11:49:38.283Z,12.40
2018-10-12T11:52:06.488Z,12.50
2018-10-12T11:54:35.503Z,11.80
2018-10-12T11:57:03.675Z,14.40
2018-10-12T11:59:31.841Z,14.90
2018-10-12T12:02:00.134Z,15.00
2018-10-12T12:04:28.312Z,14.40
2018-10-12T12:06:56.462Z,15.20
2018-10-12T12:09:24.770Z,14.10
2018-10-12T12:11:53.014Z,13.90
2018-10-12T12:14:21.226Z,14.80
2018-10-12T12:16:49.367Z,14.50
2018-10-12T12:19:17.557Z,14.50
2018-10-12T12:21:45.812Z,14.10
2018-10-12T12:24:13.998Z,14.30
2018-10-12T12:26:42.141Z,14.30
2018-10-12T12:29:10.304Z,14.80
2018-10-12T12:31:38.441Z,14.10
2018-10-12T12:34:06.757Z,13.90
2018-10-12T12:36:34.899Z,13.90
2018-10-12T12:39:04.483Z,14.90
2018-10-12T12:41:32.853Z,13.90
2018-10-12T12:44:00.928Z,14.30
2018-10-12T12:46:29.165Z,14.20
2018-10-12T12:48:57.670Z,13.60
2018-10-12T12:51:25.555Z,13.70
2018-10-12T12:53:53.728Z,14.80
2018-10-12T12:56:21.805Z,15.00
2018-10-12T12:58:50.120Z,14.30
2018-10-12T13:01:18.220Z,13.60
2018-10-12T13:03:46.372Z,13.70
2018-10-12T13:06:14.862Z,14.20
2018-10-12T13:08:43.067Z,14.10
2018-10-12T13:11:11.223Z,14.00
2018-10-12T13:13:39.334Z,14.10
2018-10-12T13:16:07.773Z,13.90
2018-10-12T13:18:36.028Z,13.80
2018-10-12T13:21:04.295Z,14.40
2018-10-12T13:23:32.461Z,14.40
2018-10-12T13:26:01.343Z,14.00
2018-10-12T13:28:29.433Z,14.10
2018-10-12T13:30:57.560Z,15.30
2018-10-12T13:33:25.741Z,15.30
2018-10-12T13:35:53.953Z,15.60
2018-10-12T13:38:22.106Z,15.50
2018-10-12T13:40:50.117Z,15.70
2018-10-12T13:43:18.263Z,15.70
2018-10-12T13:45:46.391Z,15.60
2018-10-12T13:48:14.524Z,15.30
2018-10-12T13:50:42.638Z,15.40
2018-10-12T13:53:10.880Z,15.60
2018-10-12T13:55:39.299Z,15.70
2018-10-12T13:58:07.518Z,15.70
2018-10-12T14:00:35.742Z,14.80
2018-10-12T14:03:03.991Z,15.40
2018-10-12T14:05:32.364Z,15.30
2018-10-12T14:08:00.563Z,15.80
2018-10-12T14:10:31.185Z,15.70
2018-10-12T14:12:59.400Z,15.50
2018-10-12T14:15:27.583Z,15.80
2018-10-12T14:17:56.729Z,15.80
2018-10-12T14:20:24.826Z,15.90
2018-10-12T14:22:52.932Z,16.00
2018-10-12T14:25:21.251Z,16.40
2018-10-12T14:27:49.426Z,16.90
2018-10-12T14:30:17.731Z,16.70
2018-10-12T14:32:45.950Z,17.40
2018-10-12T14:35:14.315Z,18.40
2018-10-12T14:37:42.535Z,19.20
2018-10-12T14:40:10.733Z,19.10
2018-10-12T14:42:38.915Z,19.00
2018-10-12T14:45:07.255Z,19.90
2018-10-12T14:47:35.704Z,20.10
2018-10-12T14:50:04.230Z,20.30
2018-10-12T14:52:32.479Z,21.20
2018-10-12T14:55:01.783Z,21.30
2018-10-12T14:57:30.050Z,21.60
2018-10-12T14:59:58.236Z,21.70
2018-10-12T15:02:26.501Z,22.90
2018-10-12T15:04:54.655Z,22.90
2018-10-12T15:07:22.855Z,22.80
2018-10-12T15:09:51.137Z,22.40
2018-10-12T15:12:19.280Z,23.20
2018-10-12T15:15:04.611Z,24.10
2018-10-12T15:17:32.768Z,25.10
2018-10-12T15:20:00.844Z,26.10
2018-10-12T15:22:28.950Z,27.10
2018-10-12T15:24:57.033Z,27.90
2018-10-12T15:27:25.137Z,29.00
2018-10-12T15:29:53.329Z,29.80
2018-10-12T15:32:21.429Z,29.70
2018-10-12T15:34:49.419Z,29.60
2018-10-12T15:37:18.476Z,31.50
2018-10-12T15:39:46.642Z,31.70
2018-10-12T15:42:14.833Z,32.00
2018-10-12T15:44:42.978Z,32.30
2018-10-12T15:47:11.081Z,32.80
2018-10-12T15:49:39.148Z,33.40
2018-10-12T15:52:07.268Z,34.10
2018-10-12T15:54:35.600Z,34.60
2018-10-12T15:57:03.812Z,35.20
2018-10-12T15:59:32.008Z,35.10
2018-10-12T16:02:00.308Z,35.40
2018-10-12T16:04:28.429Z,36.30
2018-10-12T16:06:56.912Z,36.60
2018-10-12T16:09:25.102Z,37.80
2018-10-12T16:11:53.452Z,37.10
2018-10-12T16:14:21.638Z,38.90
2018-10-12T16:16:49.812Z,38.70
2018-10-12T16:19:17.961Z,38.50
2018-10-12T16:21:46.120Z,38.40
2018-10-12T16:24:14.407Z,38.40
2018-10-12T16:26:43.275Z,41.00
2018-10-12T16:29:11.636Z,40.40
2018-10-12T16:31:39.724Z,40.20
2018-10-12T16:34:07.820Z,41.40
2018-10-12T16:36:36.583Z,41.00
2018-10-12T16:39:07.302Z,41.70
2018-10-12T16:41:36.151Z,42.40
2018-10-12T16:44:05.272Z,42.60
2018-10-12T16:46:33.400Z,44.00
2018-10-12T16:49:01.589Z,43.90
2018-10-12T16:51:29.885Z,45.30
2018-10-12T16:53:58.131Z,45.20
2018-10-12T16:56:26.697Z,45.70
2018-10-12T16:58:54.754Z,47.50
2018-10-12T17:01:22.881Z,47.10
2018-10-12T17:03:51.263Z,47.20
2018-10-12T17:06:19.633Z,47.40
2018-10-12T17:08:47.751Z,47.40
2018-10-12T17:11:15.952Z,47.20
2018-10-12T17:13:44.248Z,48.10
2018-10-12T17:16:12.448Z,48.10
2018-10-12T17:18:40.537Z,50.40
2018-10-12T17:21:08.637Z,49.90
2018-10-12T17:23:36.880Z,49.90
2018-10-12T17:26:05.209Z,51.60
2018-10-12T17:28:33.361Z,52.50
2018-10-12T17:31:01.507Z,52.90
2018-10-12T17:33:29.710Z,52.70
2018-10-12T17:35:58.050Z,51.80
2018-10-12T17:38:26.282Z,52.20
2018-10-12T17:40:54.487Z,53.60
2018-10-12T17:43:22.671Z,54.00
2018-10-12T17:45:50.787Z,53.40
2018-10-12T17:48:19.849Z,54.70
2018-10-12T17:50:48.168Z,54.80
2018-10-12T17:53:16.298Z,54.50
2018-10-12T17:55:44.969Z,55.40
2018-10-12T17:58:13.070Z,56.70
2018-10-12T18:00:41.329Z,56.00
2018-10-12T18:03:09.522Z,55.90
2018-10-12T18:05:38.049Z,55.40
2018-10-12T18:08:06.252Z,57.10
2018-10-12T18:10:34.466Z,57.20
2018-10-12T18:13:04.723Z,55.70
2018-10-12T18:15:34.611Z,57.20
2018-10-12T18:18:11.139Z,57.10
2018-10-12T18:20:39.302Z,57.00
2018-10-12T18:23:08.406Z,57.90
2018-10-12T18:25:36.967Z,59.40
2018-10-12T18:28:05.198Z,57.50
2018-10-12T18:30:33.487Z,58.80
2018-10-12T18:33:01.716Z,59.00
2018-10-12T18:35:30.867Z,60.80
2018-10-12T18:37:59.102Z,61.10
2018-10-12T18:40:27.288Z,60.00
2018-10-12T18:42:55.483Z,60.10
2018-10-12T18:45:23.739Z,60.30
2018-10-12T18:47:51.968Z,61.30
2018-10-12T18:50:20.054Z,61.40
2018-10-12T18:52:48.160Z,61.70
2018-10-12T18:55:16.343Z,61.50
2018-10-12T18:57:44.456Z,61.10
2018-10-12T19:00:12.793Z,61.10
2018-10-12T19:02:40.938Z,61.60
2018-10-12T19:05:09.388Z,61.90
2018-10-12T19:07:37.471Z,62.40
2018-10-12T19:10:06.120Z,63.20
2018-10-12T19:12:34.404Z,63.80
2018-10-12T19:15:02.530Z,64.90
2018-10-12T19:17:30.675Z,63.80
2018-10-12T19:19:58.807Z,64.80
2018-10-12T19:22:27.048Z,64.80
2018-10-12T19:24:55.280Z,64.80
2018-10-12T19:27:23.588Z,64.80
2018-10-12T19:29:52.363Z,65.90
2018-10-12T19:32:20.528Z,66.00
2018-10-12T19:34:48.581Z,66.80
2018-10-12T19:37:16.755Z,65.80
2018-10-12T19:39:44.988Z,66.90
2018-10-12T19:42:13.910Z,65.40
2018-10-12T19:44:41.963Z,67.40
2018-10-12T19:47:15.486Z,68.20
2018-10-12T19:49:43.703Z,67.60
2018-10-12T19:52:11.933Z,67.80
2018-10-12T19:54:40.242Z,67.90
2018-10-12T19:57:08.464Z,68.20
2018-10-12T19:59:36.707Z,67.60
2018-10-12T20:02:04.981Z,67.20
2018-10-12T20:04:33.275Z,67.60
2018-10-12T20:07:01.427Z,69.00
2018-10-12T20:09:29.647Z,69.90
2018-10-12T20:11:57.766Z,71.40
2018-10-12T20:14:26.044Z,70.30
2018-10-12T20:16:54.207Z,70.10
2018-10-12T20:19:22.531Z,70.50
2018-10-12T20:21:50.684Z,70.60
2018-10-12T20:24:18.774Z,70.60
2018-10-12T20:26:46.912Z,69.80
2018-10-12T20:29:15.676Z,69.80
2018-10-12T20:31:43.785Z,70.70
2018-10-12T20:34:11.961Z,70.70
2018-10-12T20:36:40.238Z,70.90
2018-10-12T20:39:09.901Z,70.50
2018-10-12T20:41:38.001Z,70.20
2018-10-12T20:44:06.334Z,71.20
2018-10-12T20:46:34.533Z,72.70
2018-10-12T20:49:02.765Z,71.40
2018-10-12T20:51:30.819Z,71.60
2018-10-12T20:53:58.936Z,71.70
2018-10-12T20:56:27.140Z,71.40
2018-10-12T20:58:55.281Z,72.30
2018-10-12T21:01:23.453Z,70.90
2018-10-12T21:03:51.819Z,73.10
2018-10-12T21:06:24.827Z,72.10
2018-10-12T21:08:52.941Z,72.30
2018-10-12T21:11:21.016Z,71.60
2018-10-12T21:13:49.324Z,72.50
2018-10-12T21:16:17.785Z,73.20
2018-10-12T21:18:45.913Z,74.00
2018-10-12T21:21:14.148Z,73.90
2018-10-12T21:23:42.330Z,74.00
2018-10-12T21:26:10.461Z,73.90
2018-10-12T21:28:38.617Z,73.80
2018-10-12T21:31:07.163Z,73.90
2018-10-12T21:33:35.365Z,73.70
2018-10-12T21:36:03.625Z,73.80
2018-10-12T21:38:31.818Z,73.80
2018-10-12T21:41:00.065Z,73.70
2018-10-12T21:43:28.715Z,73.80
2018-10-12T21:45:56.934Z,73.80
2018-10-12T21:48:25.105Z,73.70
2018-10-12T21:50:53.265Z,73.70
2018-10-12T21:53:22.174Z,73.60
2018-10-12T21:55:50.311Z,73.70
2018-10-12T21:58:18.746Z,73.50
2018-10-12T22:00:52.698Z,73.50
2018-10-12T22:03:20.891Z,73.60
2018-10-12T22:05:49.124Z,73.60
2018-10-12T22:08:22.952Z,73.50
2018-10-12T22:10:51.217Z,73.50
2018-10-12T22:13:19.336Z,73.50
2018-10-12T22:15:47.549Z,73.30
2018-10-12T22:18:19.983Z,74.00
2018-10-12T22:20:57.234Z,74.20
2018-10-12T22:23:36.094Z,74.40
2018-10-12T22:26:08.493Z,74.60
2018-10-12T22:28:41.987Z,74.80
2018-10-12T22:31:24.417Z,74.20
2018-10-12T22:33:52.716Z,74.10
2018-10-12T22:36:20.943Z,73.10
2018-10-12T22:38:49.303Z,73.10
2018-10-12T22:41:17.481Z,73.10
2018-10-12T22:43:45.566Z,73.10
2018-10-12T22:46:13.954Z,73.10
2018-10-12T22:48:42.083Z,73.00
2018-10-12T22:51:11.279Z,72.90
2018-10-12T22:53:39.418Z,73.00
2018-10-12T22:56:07.605Z,73.00
2018-10-12T22:58:35.764Z,72.90
2018-10-12T23:01:03.988Z,73.00
2018-10-12T23:03:32.227Z,73.30
2018-10-12T23:06:00.446Z,74.00
2018-10-12T23:08:28.537Z,74.00
2018-10-12T23:10:56.729Z,73.40
2018-10-12T23:13:24.978Z,74.00
2018-10-12T23:15:53.230Z,72.90
2018-10-12T23:18:21.529Z,73.80
2018-10-12T23:20:50.340Z,73.30
2018-10-12T23:23:18.865Z,72.70
2018-10-12T23:25:46.866Z,73.70
2018-10-12T23:28:15.024Z,74.00
2018-10-12T23:30:43.339Z,74.80
2018-10-12T23:33:28.468Z,76.20
2018-10-12T23:35:56.567Z,77.30
2018-10-12T23:38:24.666Z,77.70
2018-10-12T23:40:52.883Z,78.00
2018-10-12T23:43:21.038Z,77.40
2018-10-12T23:45:49.250Z,77.60
2018-10-12T23:48:17.438Z,76.70
2018-10-12T23:50:45.487Z,76.80
2018-10-12T23:53:13.640Z,76.00
2018-10-12T23:55:41.767Z,75.20
2018-10-12T23:58:09.965Z,75.40
